sensor_id;sensor_type;location;lat;lon;timestamp;P1;durP1;ratioP1;P2;durP2;ratioP2
23362;SDS011;11853;48.080;11.960;2023-05-21T00:00:28;10.45;;;9.35;;
23362;SDS011;11853;48.080;11.960;2023-05-21T00:02:53;11.93;;;9.60;;
23362;SDS011;11853;48.080;11.960;2023-05-21T00:05:19;11.65;;;9.30;;
23362;SDS011;11853;48.080;11.960;2023-05-21T00:07:45;10.57;;;9.57;;
23362;SDS011;11853;48.080;11.960;2023-05-21T00:10:11;10.82;;;9.82;;
23362;SDS011;11853;48.080;11.960;2023-05-21T00:12:37;10.18;;;9.18;;
23362;SDS011;11853;48.080;11.960;2023-05-21T00:15:03;10.40;;;9.05;;
23362;SDS011;11853;48.080;11.960;2023-05-21T00:17:29;9.93;;;9.02;;
23362;SDS011;11853;48.080;11.960;2023-05-21T00:19:54;9.25;;;8.35;;
23362;SDS011;11853;48.080;11.960;2023-05-21T00:22:21;9.48;;;8.63;;
23362;SDS011;11853;48.080;11.960;2023-05-21T00:24:47;8.98;;;8.18;;
23362;SDS011;11853;48.080;11.960;2023-05-21T00:27:12;10.20;;;8.80;;
23362;SDS011;11853;48.080;11.960;2023-05-21T00:29:38;9.32;;;8.40;;
23362;SDS011;11853;48.080;11.960;2023-05-21T00:32:04;8.90;;;8.00;;
23362;SDS011;11853;48.080;11.960;2023-05-21T00:34:30;10.88;;;9.27;;
23362;SDS011;11853;48.080;11.960;2023-05-21T00:36:55;8.80;;;7.97;;
23362;SDS011;11853;48.080;11.960;2023-05-21T00:39:21;8.63;;;7.80;;
23362;SDS011;11853;48.080;11.960;2023-05-21T00:41:48;8.48;;;7.65;;
23362;SDS011;11853;48.080;11.960;2023-05-21T00:44:13;8.25;;;7.50;;
23362;SDS011;11853;48.080;11.960;2023-05-21T00:46:40;9.65;;;8.65;;
23362;SDS011;11853;48.080;11.960;2023-05-21T00:49:08;8.52;;;7.55;;
23362;SDS011;11853;48.080;11.960;2023-05-21T00:51:38;9.18;;;8.23;;
23362;SDS011;11853;48.080;11.960;2023-05-21T00:54:04;9.52;;;8.43;;
23362;SDS011;11853;48.080;11.960;2023-05-21T00:56:30;8.88;;;8.07;;
23362;SDS011;11853;48.080;11.960;2023-05-21T00:58:56;8.23;;;7.40;;
23362;SDS011;11853;48.080;11.960;2023-05-21T01:01:23;8.70;;;7.80;;
23362;SDS011;11853;48.080;11.960;2023-05-21T01:03:53;8.55;;;7.60;;
23362;SDS011;11853;48.080;11.960;2023-05-21T01:06:21;8.70;;;7.90;;
23362;SDS011;11853;48.080;11.960;2023-05-21T01:08:47;7.70;;;7.00;;
23362;SDS011;11853;48.080;11.960;2023-05-21T01:11:14;8.27;;;7.47;;
23362;SDS011;11853;48.080;11.960;2023-05-21T01:13:42;8.13;;;7.32;;
23362;SDS011;11853;48.080;11.960;2023-05-21T01:16:10;8.65;;;7.75;;
23362;SDS011;11853;48.080;11.960;2023-05-21T01:18:37;8.27;;;7.43;;
23362;SDS011;11853;48.080;11.960;2023-05-21T01:21:04;9.50;;;8.38;;
23362;SDS011;11853;48.080;11.960;2023-05-21T01:23:31;8.27;;;7.47;;
23362;SDS011;11853;48.080;11.960;2023-05-21T01:25:57;8.82;;;7.93;;
23362;SDS011;11853;48.080;11.960;2023-05-21T01:28:23;8.77;;;7.97;;
23362;SDS011;11853;48.080;11.960;2023-05-21T01:30:48;8.50;;;7.70;;
23362;SDS011;11853;48.080;11.960;2023-05-21T01:33:24;9.18;;;8.00;;
23362;SDS011;11853;48.080;11.960;2023-05-21T01:36:14;9.07;;;7.47;;
23362;SDS011;11853;48.080;11.960;2023-05-21T01:38:59;10.60;;;8.55;;
23362;SDS011;11853;48.080;11.960;2023-05-21T01:41:28;9.40;;;8.50;;
23362;SDS011;11853;48.080;11.960;2023-05-21T01:43:58;8.23;;;7.45;;
23362;SDS011;11853;48.080;11.960;2023-05-21T01:46:26;9.60;;;8.15;;
23362;SDS011;11853;48.080;11.960;2023-05-21T01:48:55;9.18;;;7.82;;
23362;SDS011;11853;48.080;11.960;2023-05-21T01:51:21;9.25;;;8.35;;
23362;SDS011;11853;48.080;11.960;2023-05-21T01:53:48;10.43;;;8.18;;
23362;SDS011;11853;48.080;11.960;2023-05-21T01:56:13;8.45;;;7.65;;
23362;SDS011;11853;48.080;11.960;2023-05-21T01:58:40;8.25;;;7.38;;
23362;SDS011;11853;48.080;11.960;2023-05-21T02:01:05;8.55;;;7.82;;
23362;SDS011;11853;48.080;11.960;2023-05-21T02:03:31;8.20;;;6.90;;
23362;SDS011;11853;48.080;11.960;2023-05-21T02:05:57;8.55;;;7.65;;
23362;SDS011;11853;48.080;11.960;2023-05-21T02:08:22;8.38;;;7.55;;
23362;SDS011;11853;48.080;11.960;2023-05-21T02:10:49;8.35;;;7.40;;
23362;SDS011;11853;48.080;11.960;2023-05-21T02:13:15;8.52;;;7.63;;
23362;SDS011;11853;48.080;11.960;2023-05-21T02:15:44;8.63;;;7.78;;
23362;SDS011;11853;48.080;11.960;2023-05-21T02:18:11;8.98;;;7.72;;
23362;SDS011;11853;48.080;11.960;2023-05-21T02:27:24;8.35;;;7.55;;
23362;SDS011;11853;48.080;11.960;2023-05-21T02:29:50;8.45;;;7.53;;
23362;SDS011;11853;48.080;11.960;2023-05-21T02:32:15;9.15;;;7.50;;
23362;SDS011;11853;48.080;11.960;2023-05-21T02:34:41;9.40;;;8.23;;
23362;SDS011;11853;48.080;11.960;2023-05-21T02:37:08;8.45;;;7.65;;
23362;SDS011;11853;48.080;11.960;2023-05-21T02:39:33;8.65;;;7.75;;
23362;SDS011;11853;48.080;11.960;2023-05-21T02:42:00;8.82;;;7.95;;
23362;SDS011;11853;48.080;11.960;2023-05-21T02:44:26;9.15;;;8.00;;
23362;SDS011;11853;48.080;11.960;2023-05-21T02:46:51;8.57;;;7.68;;
23362;SDS011;11853;48.080;11.960;2023-05-21T02:49:17;9.43;;;7.90;;
23362;SDS011;11853;48.080;11.960;2023-05-21T02:51:42;10.00;;;9.00;;
23362;SDS011;11853;48.080;11.960;2023-05-21T02:54:08;8.95;;;8.13;;
23362;SDS011;11853;48.080;11.960;2023-05-21T02:56:33;8.40;;;7.60;;
23362;SDS011;11853;48.080;11.960;2023-05-21T02:58:59;9.13;;;8.23;;
23362;SDS011;11853;48.080;11.960;2023-05-21T03:01:24;9.00;;;8.18;;
23362;SDS011;11853;48.080;11.960;2023-05-21T03:03:50;8.55;;;7.70;;
23362;SDS011;11853;48.080;11.960;2023-05-21T03:06:15;8.75;;;7.90;;
23362;SDS011;11853;48.080;11.960;2023-05-21T03:08:41;9.07;;;8.18;;
23362;SDS011;11853;48.080;11.960;2023-05-21T03:11:07;8.85;;;8.05;;
23362;SDS011;11853;48.080;11.960;2023-05-21T03:13:32;8.80;;;8.00;;
23362;SDS011;11853;48.080;11.960;2023-05-21T03:15:58;8.77;;;7.90;;
23362;SDS011;11853;48.080;11.960;2023-05-21T03:18:23;10.10;;;8.38;;
23362;SDS011;11853;48.080;11.960;2023-05-21T03:20:49;8.70;;;7.90;;
23362;SDS011;11853;48.080;11.960;2023-05-21T03:23:14;8.98;;;8.07;;
23362;SDS011;11853;48.080;11.960;2023-05-21T03:25:40;8.82;;;7.93;;
23362;SDS011;11853;48.080;11.960;2023-05-21T03:28:06;8.80;;;7.93;;
23362;SDS011;11853;48.080;11.960;2023-05-21T03:30:34;8.68;;;7.88;;
23362;SDS011;11853;48.080;11.960;2023-05-21T03:33:00;9.10;;;8.23;;
23362;SDS011;11853;48.080;11.960;2023-05-21T03:35:27;9.50;;;8.52;;
23362;SDS011;11853;48.080;11.960;2023-05-21T03:37:52;9.13;;;8.32;;
23362;SDS011;11853;48.080;11.960;2023-05-21T03:40:18;9.07;;;8.27;;
23362;SDS011;11853;48.080;11.960;2023-05-21T03:42:43;8.55;;;7.75;;
23362;SDS011;11853;48.080;11.960;2023-05-21T03:45:09;9.18;;;8.27;;
23362;SDS011;11853;48.080;11.960;2023-05-21T03:47:35;9.05;;;7.75;;
23362;SDS011;11853;48.080;11.960;2023-05-21T03:50:01;8.45;;;7.57;;
23362;SDS011;11853;48.080;11.960;2023-05-21T03:52:27;8.55;;;7.70;;
23362;SDS011;11853;48.080;11.960;2023-05-21T03:54:53;12.20;;;7.65;;
23362;SDS011;11853;48.080;11.960;2023-05-21T03:57:18;8.82;;;7.93;;
23362;SDS011;11853;48.080;11.960;2023-05-21T04:03:05;8.98;;;7.35;;
23362;SDS011;11853;48.080;11.960;2023-05-21T04:05:31;8.68;;;7.78;;
23362;SDS011;11853;48.080;11.960;2023-05-21T04:07:57;8.98;;;8.07;;
23362;SDS011;11853;48.080;11.960;2023-05-21T04:10:25;8.75;;;7.88;;
23362;SDS011;11853;48.080;11.960;2023-05-21T04:12:51;8.23;;;7.00;;
23362;SDS011;11853;48.080;11.960;2023-05-21T04:15:17;11.45;;;7.93;;
23362;SDS011;11853;48.080;11.960;2023-05-21T04:17:43;8.63;;;7.47;;
23362;SDS011;11853;48.080;11.960;2023-05-21T04:20:10;9.15;;;7.97;;
23362;SDS011;11853;48.080;11.960;2023-05-21T04:22:38;7.93;;;7.00;;
23362;SDS011;11853;48.080;11.960;2023-05-21T04:25:04;7.70;;;6.95;;
23362;SDS011;11853;48.080;11.960;2023-05-21T04:27:30;9.50;;;8.00;;
23362;SDS011;11853;48.080;11.960;2023-05-21T04:29:55;8.35;;;7.55;;
23362;SDS011;11853;48.080;11.960;2023-05-21T04:32:22;7.22;;;6.63;;
23362;SDS011;11853;48.080;11.960;2023-05-21T04:34:47;8.05;;;7.25;;
23362;SDS011;11853;48.080;11.960;2023-05-21T04:37:13;8.18;;;7.35;;
23362;SDS011;11853;48.080;11.960;2023-05-21T04:39:41;8.20;;;7.20;;
23362;SDS011;11853;48.080;11.960;2023-05-21T04:42:07;8.35;;;7.38;;
23362;SDS011;11853;48.080;11.960;2023-05-21T04:44:35;8.50;;;7.70;;
23362;SDS011;11853;48.080;11.960;2023-05-21T04:47:02;8.30;;;7.50;;
23362;SDS011;11853;48.080;11.960;2023-05-21T04:49:31;8.15;;;7.43;;
23362;SDS011;11853;48.080;11.960;2023-05-21T04:51:59;8.60;;;7.70;;
23362;SDS011;11853;48.080;11.960;2023-05-21T04:54:26;8.32;;;7.50;;
23362;SDS011;11853;48.080;11.960;2023-05-21T04:56:51;7.97;;;7.25;;
23362;SDS011;11853;48.080;11.960;2023-05-21T04:59:17;8.38;;;7.40;;
23362;SDS011;11853;48.080;11.960;2023-05-21T05:01:43;8.45;;;7.57;;
23362;SDS011;11853;48.080;11.960;2023-05-21T05:04:09;8.05;;;7.28;;
23362;SDS011;11853;48.080;11.960;2023-05-21T05:06:35;8.00;;;7.30;;
23362;SDS011;11853;48.080;11.960;2023-05-21T05:09:01;9.73;;;7.78;;
23362;SDS011;11853;48.080;11.960;2023-05-21T05:11:26;8.25;;;7.18;;
23362;SDS011;11853;48.080;11.960;2023-05-21T05:13:52;8.65;;;7.75;;
23362;SDS011;11853;48.080;11.960;2023-05-21T05:16:18;8.27;;;7.47;;
23362;SDS011;11853;48.080;11.960;2023-05-21T05:18:49;8.18;;;7.38;;
23362;SDS011;11853;48.080;11.960;2023-05-21T05:21:18;9.77;;;8.77;;
23362;SDS011;11853;48.080;11.960;2023-05-21T05:23:44;10.20;;;7.45;;
23362;SDS011;11853;48.080;11.960;2023-05-21T05:26:10;9.85;;;8.40;;
23362;SDS011;11853;48.080;11.960;2023-05-21T05:28:35;8.57;;;7.78;;
23362;SDS011;11853;48.080;11.960;2023-05-21T05:31:01;10.70;;;8.68;;
23362;SDS011;11853;48.080;11.960;2023-05-21T05:33:26;8.98;;;8.18;;
23362;SDS011;11853;48.080;11.960;2023-05-21T05:35:52;9.82;;;8.43;;
23362;SDS011;11853;48.080;11.960;2023-05-21T05:38:17;9.90;;;8.07;;
23362;SDS011;11853;48.080;11.960;2023-05-21T05:40:43;10.05;;;8.85;;
23362;SDS011;11853;48.080;11.960;2023-05-21T05:43:09;10.55;;;7.93;;
23362;SDS011;11853;48.080;11.960;2023-05-21T05:45:34;9.25;;;8.35;;
23362;SDS011;11853;48.080;11.960;2023-05-21T05:48:00;9.18;;;7.53;;
23362;SDS011;11853;48.080;11.960;2023-05-21T05:50:26;8.20;;;7.40;;
23362;SDS011;11853;48.080;11.960;2023-05-21T05:52:52;8.38;;;7.35;;
23362;SDS011;11853;48.080;11.960;2023-05-21T05:55:17;8.10;;;7.32;;
23362;SDS011;11853;48.080;11.960;2023-05-21T05:57:43;8.07;;;7.15;;
23362;SDS011;11853;48.080;11.960;2023-05-21T06:00:08;11.10;;;7.88;;
23362;SDS011;11853;48.080;11.960;2023-05-21T06:02:34;8.30;;;7.40;;
23362;SDS011;11853;48.080;11.960;2023-05-21T06:05:01;8.00;;;7.20;;
23362;SDS011;11853;48.080;11.960;2023-05-21T06:07:27;8.35;;;7.55;;
23362;SDS011;11853;48.080;11.960;2023-05-21T06:09:53;8.02;;;7.32;;
23362;SDS011;11853;48.080;11.960;2023-05-21T06:12:19;8.73;;;7.35;;
23362;SDS011;11853;48.080;11.960;2023-05-21T06:14:44;9.15;;;8.25;;
23362;SDS011;11853;48.080;11.960;2023-05-21T06:17:10;11.73;;;7.75;;
23362;SDS011;11853;48.080;11.960;2023-05-21T06:19:36;8.65;;;7.75;;
23362;SDS011;11853;48.080;11.960;2023-05-21T06:22:01;8.48;;;7.32;;
23362;SDS011;11853;48.080;11.960;2023-05-21T06:24:27;8.70;;;7.90;;
23362;SDS011;11853;48.080;11.960;2023-05-21T06:26:52;9.15;;;8.32;;
23362;SDS011;11853;48.080;11.960;2023-05-21T06:29:18;9.88;;;8.43;;
23362;SDS011;11853;48.080;11.960;2023-05-21T06:31:43;8.57;;;7.68;;
23362;SDS011;11853;48.080;11.960;2023-05-21T06:34:09;8.13;;;7.32;;
23362;SDS011;11853;48.080;11.960;2023-05-21T06:36:36;9.15;;;7.45;;
23362;SDS011;11853;48.080;11.960;2023-05-21T06:39:01;9.55;;;7.68;;
23362;SDS011;11853;48.080;11.960;2023-05-21T06:41:27;9.13;;;7.72;;
23362;SDS011;11853;48.080;11.960;2023-05-21T06:43:56;8.82;;;7.20;;
23362;SDS011;11853;48.080;11.960;2023-05-21T06:46:24;8.25;;;7.10;;
23362;SDS011;11853;48.080;11.960;2023-05-21T06:49:30;11.50;;;8.57;;
23362;SDS011;11853;48.080;11.960;2023-05-21T06:52:01;10.23;;;7.63;;
23362;SDS011;11853;48.080;11.960;2023-05-21T06:54:27;8.10;;;7.40;;
23362;SDS011;11853;48.080;11.960;2023-05-21T06:56:53;7.82;;;7.03;;
23362;SDS011;11853;48.080;11.960;2023-05-21T06:59:18;7.95;;;7.25;;
23362;SDS011;11853;48.080;11.960;2023-05-21T07:01:44;8.15;;;7.35;;
23362;SDS011;11853;48.080;11.960;2023-05-21T07:04:09;8.20;;;7.40;;
23362;SDS011;11853;48.080;11.960;2023-05-21T07:06:35;7.25;;;6.55;;
23362;SDS011;11853;48.080;11.960;2023-05-21T07:09:04;8.80;;;7.85;;
23362;SDS011;11853;48.080;11.960;2023-05-21T07:11:30;8.48;;;7.00;;
23362;SDS011;11853;48.080;11.960;2023-05-21T07:13:59;8.00;;;7.30;;
23362;SDS011;11853;48.080;11.960;2023-05-21T07:16:25;8.13;;;7.30;;
23362;SDS011;11853;48.080;11.960;2023-05-21T07:18:51;8.70;;;7.70;;
23362;SDS011;11853;48.080;11.960;2023-05-21T07:21:17;8.52;;;7.65;;
23362;SDS011;11853;48.080;11.960;2023-05-21T07:23:42;8.20;;;7.40;;
23362;SDS011;11853;48.080;11.960;2023-05-21T07:26:09;8.60;;;7.80;;
23362;SDS011;11853;48.080;11.960;2023-05-21T07:28:35;10.20;;;8.02;;
23362;SDS011;11853;48.080;11.960;2023-05-21T07:31:00;8.88;;;8.07;;
23362;SDS011;11853;48.080;11.960;2023-05-21T07:33:26;9.45;;;8.52;;
23362;SDS011;11853;48.080;11.960;2023-05-21T07:35:52;8.70;;;7.40;;
23362;SDS011;11853;48.080;11.960;2023-05-21T07:38:17;9.38;;;8.02;;
23362;SDS011;11853;48.080;11.960;2023-05-21T07:40:43;8.73;;;7.80;;
23362;SDS011;11853;48.080;11.960;2023-05-21T07:43:08;10.90;;;8.30;;
23362;SDS011;11853;48.080;11.960;2023-05-21T07:45:34;8.70;;;7.68;;
23362;SDS011;11853;48.080;11.960;2023-05-21T07:48:00;7.50;;;6.85;;
23362;SDS011;11853;48.080;11.960;2023-05-21T07:50:25;9.75;;;7.63;;
23362;SDS011;11853;48.080;11.960;2023-05-21T07:52:51;10.05;;;8.10;;
23362;SDS011;11853;48.080;11.960;2023-05-21T07:55:16;8.82;;;6.78;;
23362;SDS011;11853;48.080;11.960;2023-05-21T07:57:42;7.95;;;7.15;;
23362;SDS011;11853;48.080;11.960;2023-05-21T08:00:09;8.40;;;7.50;;
23362;SDS011;11853;48.080;11.960;2023-05-21T08:02:38;8.02;;;7.32;;
23362;SDS011;11853;48.080;11.960;2023-05-21T08:05:04;7.70;;;7.00;;
23362;SDS011;11853;48.080;11.960;2023-05-21T08:07:30;9.10;;;7.88;;
23362;SDS011;11853;48.080;11.960;2023-05-21T08:09:56;9.98;;;7.30;;
23362;SDS011;11853;48.080;11.960;2023-05-21T08:12:22;7.78;;;6.97;;
23362;SDS011;11853;48.080;11.960;2023-05-21T08:14:53;7.38;;;6.20;;
23362;SDS011;11853;48.080;11.960;2023-05-21T08:17:24;7.80;;;7.00;;
23362;SDS011;11853;48.080;11.960;2023-05-21T08:19:49;7.95;;;7.25;;
23362;SDS011;11853;48.080;11.960;2023-05-21T08:22:15;7.43;;;6.72;;
23362;SDS011;11853;48.080;11.960;2023-05-21T08:24:40;9.82;;;7.40;;
23362;SDS011;11853;48.080;11.960;2023-05-21T08:27:06;8.25;;;7.45;;
23362;SDS011;11853;48.080;11.960;2023-05-21T08:29:32;8.05;;;6.88;;
23362;SDS011;11853;48.080;11.960;2023-05-21T08:31:58;8.30;;;7.50;;
23362;SDS011;11853;48.080;11.960;2023-05-21T08:34:46;7.28;;;6.57;;
23362;SDS011;11853;48.080;11.960;2023-05-21T08:37:12;8.75;;;7.20;;
23362;SDS011;11853;48.080;11.960;2023-05-21T08:39:37;7.63;;;6.93;;
23362;SDS011;11853;48.080;11.960;2023-05-21T08:42:11;9.05;;;7.20;;
23362;SDS011;11853;48.080;11.960;2023-05-21T08:44:44;8.27;;;6.90;;
23362;SDS011;11853;48.080;11.960;2023-05-21T08:47:16;7.43;;;6.72;;
23362;SDS011;11853;48.080;11.960;2023-05-21T08:49:47;7.60;;;6.70;;
23362;SDS011;11853;48.080;11.960;2023-05-21T08:52:15;7.43;;;6.63;;
23362;SDS011;11853;48.080;11.960;2023-05-21T08:54:42;7.55;;;6.80;;
23362;SDS011;11853;48.080;11.960;2023-05-21T08:57:09;7.38;;;6.68;;
23362;SDS011;11853;48.080;11.960;2023-05-21T08:59:37;9.35;;;7.30;;
23362;SDS011;11853;48.080;11.960;2023-05-21T09:02:07;7.68;;;6.88;;
23362;SDS011;11853;48.080;11.960;2023-05-21T09:04:36;7.15;;;6.45;;
23362;SDS011;11853;48.080;11.960;2023-05-21T09:07:04;7.82;;;7.13;;
23362;SDS011;11853;48.080;11.960;2023-05-21T09:09:31;9.73;;;6.80;;
23362;SDS011;11853;48.080;11.960;2023-05-21T09:12:01;7.43;;;6.63;;
23362;SDS011;11853;48.080;11.960;2023-05-21T09:14:27;7.03;;;6.18;;
23362;SDS011;11853;48.080;11.960;2023-05-21T09:16:54;7.35;;;6.65;;
23362;SDS011;11853;48.080;11.960;2023-05-21T09:19:20;7.07;;;6.38;;
23362;SDS011;11853;48.080;11.960;2023-05-21T09:21:51;7.40;;;6.70;;
23362;SDS011;11853;48.080;11.960;2023-05-21T09:24:18;7.38;;;6.65;;
23362;SDS011;11853;48.080;11.960;2023-05-21T09:26:47;10.93;;;6.63;;
23362;SDS011;11853;48.080;11.960;2023-05-21T09:29:12;7.78;;;7.07;;
23362;SDS011;11853;48.080;11.960;2023-05-21T09:31:44;7.97;;;6.78;;
23362;SDS011;11853;48.080;11.960;2023-05-21T09:34:09;7.55;;;6.22;;
23362;SDS011;11853;48.080;11.960;2023-05-21T09:36:36;7.32;;;6.63;;
23362;SDS011;11853;48.080;11.960;2023-05-21T09:39:02;7.45;;;6.80;;
23362;SDS011;11853;48.080;11.960;2023-05-21T09:41:32;7.35;;;6.60;;
23362;SDS011;11853;48.080;11.960;2023-05-21T09:44:00;7.38;;;6.65;;
23362;SDS011;11853;48.080;11.960;2023-05-21T09:46:26;7.90;;;6.90;;
23362;SDS011;11853;48.080;11.960;2023-05-21T09:49:01;7.90;;;7.10;;
23362;SDS011;11853;48.080;11.960;2023-05-21T09:51:26;8.63;;;6.78;;
23362;SDS011;11853;48.080;11.960;2023-05-21T09:53:55;7.30;;;6.53;;
23362;SDS011;11853;48.080;11.960;2023-05-21T09:56:25;6.65;;;6.05;;
23362;SDS011;11853;48.080;11.960;2023-05-21T09:59:01;7.07;;;6.45;;
23362;SDS011;11853;48.080;11.960;2023-05-21T10:01:30;7.25;;;6.50;;
23362;SDS011;11853;48.080;11.960;2023-05-21T10:04:00;7.63;;;6.90;;
23362;SDS011;11853;48.080;11.960;2023-05-21T10:06:28;8.25;;;6.60;;
23362;SDS011;11853;48.080;11.960;2023-05-21T10:08:58;7.53;;;6.72;;
23362;SDS011;11853;48.080;11.960;2023-05-21T10:11:26;6.93;;;6.07;;
23362;SDS011;11853;48.080;11.960;2023-05-21T10:14:08;6.70;;;6.07;;
23362;SDS011;11853;48.080;11.960;2023-05-21T10:16:40;6.78;;;6.20;;
23362;SDS011;11853;48.080;11.960;2023-05-21T10:19:06;7.72;;;6.93;;
23362;SDS011;11853;48.080;11.960;2023-05-21T10:21:35;8.55;;;6.55;;
23362;SDS011;11853;48.080;11.960;2023-05-21T10:24:02;6.22;;;5.68;;
23362;SDS011;11853;48.080;11.960;2023-05-21T10:26:29;6.95;;;6.25;;
23362;SDS011;11853;48.080;11.960;2023-05-21T10:28:55;7.22;;;6.22;;
23362;SDS011;11853;48.080;11.960;2023-05-21T10:31:25;7.88;;;6.45;;
23362;SDS011;11853;48.080;11.960;2023-05-21T10:33:54;7.63;;;6.50;;
23362;SDS011;11853;48.080;11.960;2023-05-21T10:36:20;7.15;;;6.50;;
23362;SDS011;11853;48.080;11.960;2023-05-21T10:38:48;7.50;;;6.80;;
23362;SDS011;11853;48.080;11.960;2023-05-21T10:41:14;7.63;;;6.82;;
23362;SDS011;11853;48.080;11.960;2023-05-21T10:49:01;7.05;;;6.38;;
23362;SDS011;11853;48.080;11.960;2023-05-21T10:51:56;6.50;;;5.70;;
23362;SDS011;11853;48.080;11.960;2023-05-21T10:59:48;6.88;;;5.97;;
23362;SDS011;11853;48.080;11.960;2023-05-21T11:02:15;6.43;;;5.82;;
23362;SDS011;11853;48.080;11.960;2023-05-21T11:04:43;6.38;;;5.78;;
23362;SDS011;11853;48.080;11.960;2023-05-21T11:07:10;6.78;;;5.57;;
23362;SDS011;11853;48.080;11.960;2023-05-21T11:09:37;8.32;;;6.53;;
23362;SDS011;11853;48.080;11.960;2023-05-21T11:12:04;6.65;;;5.95;;
23362;SDS011;11853;48.080;11.960;2023-05-21T11:14:41;6.93;;;6.25;;
23362;SDS011;11853;48.080;11.960;2023-05-21T11:17:37;6.68;;;6.00;;
23362;SDS011;11853;48.080;11.960;2023-05-21T11:20:07;6.07;;;5.57;;
23362;SDS011;11853;48.080;11.960;2023-05-21T11:22:38;6.38;;;5.78;;
23362;SDS011;11853;48.080;11.960;2023-05-21T11:25:03;6.78;;;6.18;;
23362;SDS011;11853;48.080;11.960;2023-05-21T11:27:36;8.13;;;5.85;;
23362;SDS011;11853;48.080;11.960;2023-05-21T11:30:08;6.15;;;5.55;;
23362;SDS011;11853;48.080;11.960;2023-05-21T11:32:39;8.10;;;5.93;;
23362;SDS011;11853;48.080;11.960;2023-05-21T11:35:26;5.90;;;5.40;;
23362;SDS011;11853;48.080;11.960;2023-05-21T11:37:55;6.20;;;5.63;;
23362;SDS011;11853;48.080;11.960;2023-05-21T11:40:23;6.45;;;5.50;;
23362;SDS011;11853;48.080;11.960;2023-05-21T11:42:52;6.07;;;5.53;;
23362;SDS011;11853;48.080;11.960;2023-05-21T11:45:19;6.38;;;5.78;;
23362;SDS011;11853;48.080;11.960;2023-05-21T11:47:47;6.57;;;5.82;;
23362;SDS011;11853;48.080;11.960;2023-05-21T11:50:14;6.22;;;5.63;;
23362;SDS011;11853;48.080;11.960;2023-05-21T11:52:41;5.85;;;5.35;;
23362;SDS011;11853;48.080;11.960;2023-05-21T11:55:07;8.90;;;6.38;;
23362;SDS011;11853;48.080;11.960;2023-05-21T11:57:33;6.65;;;6.05;;
23362;SDS011;11853;48.080;11.960;2023-05-21T12:00:00;7.25;;;6.30;;
23362;SDS011;11853;48.080;11.960;2023-05-21T12:02:29;6.53;;;5.78;;
23362;SDS011;11853;48.080;11.960;2023-05-21T12:04:56;7.45;;;6.03;;
23362;SDS011;11853;48.080;11.960;2023-05-21T12:07:25;6.13;;;5.55;;
23362;SDS011;11853;48.080;11.960;2023-05-21T12:09:55;6.53;;;5.73;;
23362;SDS011;11853;48.080;11.960;2023-05-21T12:12:21;6.93;;;6.22;;
23362;SDS011;11853;48.080;11.960;2023-05-21T12:14:49;6.70;;;6.10;;
23362;SDS011;11853;48.080;11.960;2023-05-21T12:17:22;6.60;;;6.00;;
23362;SDS011;11853;48.080;11.960;2023-05-21T12:19:52;7.53;;;5.97;;
23362;SDS011;11853;48.080;11.960;2023-05-21T12:22:19;7.80;;;6.18;;
23362;SDS011;11853;48.080;11.960;2023-05-21T12:24:45;6.78;;;5.40;;
23362;SDS011;11853;48.080;11.960;2023-05-21T12:27:12;6.75;;;6.15;;
23362;SDS011;11853;48.080;11.960;2023-05-21T12:29:44;8.35;;;6.45;;
23362;SDS011;11853;48.080;11.960;2023-05-21T12:32:15;7.05;;;6.32;;
23362;SDS011;11853;48.080;11.960;2023-05-21T12:34:42;7.43;;;6.10;;
23362;SDS011;11853;48.080;11.960;2023-05-21T12:37:10;6.85;;;6.15;;
23362;SDS011;11853;48.080;11.960;2023-05-21T12:39:41;6.28;;;5.70;;
23362;SDS011;11853;48.080;11.960;2023-05-21T12:42:08;7.10;;;6.40;;
23362;SDS011;11853;48.080;11.960;2023-05-21T12:44:33;6.55;;;6.03;;
23362;SDS011;11853;48.080;11.960;2023-05-21T12:46:59;7.15;;;6.35;;
23362;SDS011;11853;48.080;11.960;2023-05-21T12:49:32;8.63;;;6.40;;
23362;SDS011;11853;48.080;11.960;2023-05-21T12:52:01;6.72;;;6.03;;
23362;SDS011;11853;48.080;11.960;2023-05-21T12:54:29;8.32;;;6.45;;
23362;SDS011;11853;48.080;11.960;2023-05-21T12:56:56;7.15;;;6.53;;
23362;SDS011;11853;48.080;11.960;2023-05-21T12:59:21;7.15;;;6.05;;
23362;SDS011;11853;48.080;11.960;2023-05-21T13:01:47;7.05;;;6.35;;
23362;SDS011;11853;48.080;11.960;2023-05-21T13:04:12;7.00;;;6.40;;
23362;SDS011;11853;48.080;11.960;2023-05-21T13:06:42;5.88;;;5.28;;
23362;SDS011;11853;48.080;11.960;2023-05-21T13:09:08;6.10;;;5.60;;
23362;SDS011;11853;48.080;11.960;2023-05-21T13:11:33;6.55;;;5.97;;
23362;SDS011;11853;48.080;11.960;2023-05-21T13:13:59;6.40;;;5.70;;
23362;SDS011;11853;48.080;11.960;2023-05-21T13:16:24;7.60;;;6.13;;
23362;SDS011;11853;48.080;11.960;2023-05-21T13:18:50;6.53;;;5.70;;
23362;SDS011;11853;48.080;11.960;2023-05-21T13:21:16;7.25;;;6.00;;
23362;SDS011;11853;48.080;11.960;2023-05-21T13:23:41;7.60;;;5.50;;
23362;SDS011;11853;48.080;11.960;2023-05-21T13:26:07;6.45;;;5.53;;
23362;SDS011;11853;48.080;11.960;2023-05-21T13:28:33;6.47;;;5.78;;
23362;SDS011;11853;48.080;11.960;2023-05-21T13:30:59;8.68;;;5.30;;
23362;SDS011;11853;48.080;11.960;2023-05-21T13:33:24;6.28;;;5.68;;
23362;SDS011;11853;48.080;11.960;2023-05-21T13:35:50;6.10;;;5.53;;
23362;SDS011;11853;48.080;11.960;2023-05-21T13:38:16;6.47;;;5.82;;
23362;SDS011;11853;48.080;11.960;2023-05-21T13:40:42;5.85;;;5.35;;
23362;SDS011;11853;48.080;11.960;2023-05-21T13:43:07;6.00;;;5.45;;
23362;SDS011;11853;48.080;11.960;2023-05-21T13:45:33;7.05;;;5.82;;
23362;SDS011;11853;48.080;11.960;2023-05-21T13:47:58;6.13;;;5.60;;
23362;SDS011;11853;48.080;11.960;2023-05-21T13:50:24;5.45;;;4.95;;
23362;SDS011;11853;48.080;11.960;2023-05-21T13:52:49;6.78;;;6.18;;
23362;SDS011;11853;48.080;11.960;2023-05-21T13:55:15;8.15;;;5.22;;
23362;SDS011;11853;48.080;11.960;2023-05-21T13:57:41;9.65;;;5.75;;
23362;SDS011;11853;48.080;11.960;2023-05-21T14:00:07;5.80;;;5.20;;
23362;SDS011;11853;48.080;11.960;2023-05-21T14:02:34;6.53;;;5.35;;
23362;SDS011;11853;48.080;11.960;2023-05-21T14:05:00;5.32;;;4.82;;
23362;SDS011;11853;48.080;11.960;2023-05-21T14:07:25;6.20;;;5.60;;
23362;SDS011;11853;48.080;11.960;2023-05-21T14:09:51;6.43;;;5.82;;
23362;SDS011;11853;48.080;11.960;2023-05-21T14:12:16;5.72;;;5.22;;
23362;SDS011;11853;48.080;11.960;2023-05-21T14:14:43;8.43;;;5.60;;
23362;SDS011;11853;48.080;11.960;2023-05-21T14:17:08;6.63;;;6.03;;
23362;SDS011;11853;48.080;11.960;2023-05-21T14:19:34;5.80;;;5.20;;
23362;SDS011;11853;48.080;11.960;2023-05-21T14:22:00;6.07;;;5.47;;
23362;SDS011;11853;48.080;11.960;2023-05-21T14:24:25;7.30;;;5.25;;
23362;SDS011;11853;48.080;11.960;2023-05-21T14:26:51;7.65;;;6.95;;
23362;SDS011;11853;48.080;11.960;2023-05-21T14:29:16;5.93;;;5.30;;
23362;SDS011;11853;48.080;11.960;2023-05-21T14:31:42;6.28;;;5.07;;
23362;SDS011;11853;48.080;11.960;2023-05-21T14:34:08;6.15;;;5.60;;
23362;SDS011;11853;48.080;11.960;2023-05-21T14:36:33;6.00;;;5.45;;
23362;SDS011;11853;48.080;11.960;2023-05-21T14:39:00;6.95;;;5.63;;
23362;SDS011;11853;48.080;11.960;2023-05-21T14:41:26;5.90;;;5.30;;
23362;SDS011;11853;48.080;11.960;2023-05-21T14:43:52;6.93;;;6.32;;
23362;SDS011;11853;48.080;11.960;2023-05-21T14:46:18;6.05;;;5.05;;
23362;SDS011;11853;48.080;11.960;2023-05-21T14:48:44;6.30;;;5.70;;
23362;SDS011;11853;48.080;11.960;2023-05-21T14:51:12;6.57;;;5.97;;
23362;SDS011;11853;48.080;11.960;2023-05-21T14:53:38;7.72;;;5.53;;